METAR Data
IDs: Format: Raw Decoded Include TAF

Data at: 1304 UTC 11 Dec 2018

KRFI 110155Z AUTO 00000KT 10SM CLR 02/01 A3039 RMK AO2 T00180005
KRFI 110055Z AUTO 00000KT 10SM CLR 03/01 A3038 RMK AO2 T00340005
KRFI 102315Z AUTO 00000KT 10SM CLR 07/01 A3036 RMK AO2 T00660013
KRFI 102255Z AUTO 00000KT 10SM CLR 11/M03 A3035 RMK AO2 T01051032
KRFI 102215Z AUTO 00000KT 10SM CLR 12/M04 A3035 RMK AO2 T01191041
KRFI 102155Z AUTO 35005KT 10SM CLR 12/M05 A3035 RMK AO2 T01201046
KRFI 102135Z AUTO 34006KT 10SM CLR 12/M05 A3035 RMK AO2 T01231047
KRFI 102035Z AUTO 00000KT 10SM CLR 12/M04 A3034 RMK AO2 T01221045
KRFI 102015Z AUTO 29004KT 10SM CLR 12/M05 A3034 RMK AO2 T01171047
KRFI 101955Z AUTO 34003KT 10SM CLR 12/M06 A3035 RMK AO2 T01171056
KRFI 101935Z AUTO 28005KT 10SM CLR 11/M06 A3035 RMK AO2 T01131058
KRFI 101915Z AUTO 35005KT 10SM CLR 11/M06 A3036 RMK AO2 T01101058
KRFI 101855Z AUTO 30005KT 10SM CLR 11/M04 A3037 RMK AO2 T01051044
KRFI 101835Z AUTO 36006KT 10SM CLR 10/M05 A3038 RMK AO2 T00991049
KRFI 101815Z AUTO 33003KT 10SM CLR 10/M04 A3038 RMK AO2 T00951038
KRFI 101735Z AUTO 30004KT 10SM CLR 08/M03 A3039 RMK AO2 T00831034
KRFI 101715Z AUTO 00000KT 10SM CLR 08/M03 A3040 RMK AO2 T00771030
KRFI 101515Z AUTO 34003KT 10SM CLR 03/M01 A3041 RMK AO2 T00301012
KRFI 101435Z AUTO 25003KT 10SM CLR 02/M01 A3040 RMK AO2 T00171012
KRFI 101415Z AUTO 28003KT 10SM CLR 00/M01 A3039 RMK AO2 T00001013
KRFI 101215Z AUTO 00000KT 10SM CLR M02/M02 A3035 RMK AO2 T10181025
KRFI 101155Z AUTO 00000KT 10SM CLR M02/M02 A3034 RMK AO2 T10171022 10035 21019
KRFI 100855Z AUTO 00000KT 10SM CLR M01/M01 A3033 RMK AO2 T10061013
KRFI 100815Z AUTO 00000KT 10SM CLR 00/M01 A3033 RMK AO2 T00011014
KRFI 100715Z AUTO 00000KT 10SM CLR 03/M02 A3033 RMK AO2 T00251019
KRFI 100655Z AUTO 34003KT 10SM CLR 03/M02 A3033 RMK AO2 T00301016
KRFI 100635Z AUTO 35003KT 10SM CLR 03/M01 A3033 RMK AO2 T00301013
KRFI 100555Z AUTO 33003KT 10SM CLR 03/M01 A3034 RMK AO2 T00321006 10065 20024 400950024
KRFI 100535Z AUTO 33003KT 10SM CLR 03/00 A3034 RMK AO2 T00340000
KRFI 100515Z AUTO 33003KT 10SM CLR 04/01 A3035 RMK AO2 T00360005
KRFI 100435Z AUTO 00000KT 10SM CLR 02/01 A3035 RMK AO2 T00240013
KRFI 100355Z AUTO 00000KT 10SM CLR 04/01 A3033 RMK AO2 T00410012
KRFI 100315Z AUTO 00000KT 10SM BKN046 05/01 A3033 RMK AO2 T00500012
KRFI 100255Z AUTO 34004KT 10SM BKN046 05/02 A3033 RMK AO2 T00540015
KRFI 100115Z AUTO 00000KT 10SM CLR 07/04 A3031 RMK AO2 T00650040